createdAt,value
2022-11-24T00:02:54.200Z,16.25
2022-11-24T00:05:56.908Z,15.27
2022-11-24T00:08:59.241Z,16.90
2022-11-24T00:12:01.821Z,12.95
2022-11-24T00:15:04.248Z,13.90
2022-11-24T00:18:06.783Z,13.20
2022-11-24T00:21:09.785Z,12.10
2022-11-24T00:24:12.467Z,13.50
2022-11-24T00:27:14.832Z,14.18
2022-11-24T00:30:17.402Z,12.65
2022-11-24T00:33:19.570Z,14.57
2022-11-24T00:36:24.068Z,13.07
2022-11-24T00:39:26.270Z,14.68
2022-11-24T00:42:28.857Z,13.35
2022-11-24T00:45:31.024Z,13.68
2022-11-24T00:48:33.606Z,13.32
2022-11-24T00:51:35.794Z,15.20
2022-11-24T00:54:38.309Z,12.43
2022-11-24T00:57:40.518Z,14.70
2022-11-24T01:00:43.287Z,15.70
2022-11-24T01:03:47.406Z,18.87
2022-11-24T01:06:49.943Z,16.27
2022-11-24T01:09:52.129Z,17.35
2022-11-24T01:12:54.659Z,20.67
2022-11-24T01:15:56.895Z,17.60
2022-11-24T01:19:00.182Z,16.20
2022-11-24T01:22:02.365Z,15.10
2022-11-24T01:25:09.680Z,18.62
2022-11-24T01:28:11.975Z,18.83
2022-11-24T01:31:15.529Z,20.75
2022-11-24T01:34:17.807Z,24.80
2022-11-24T01:37:20.540Z,20.55
2022-11-24T01:40:22.780Z,18.90
2022-11-24T01:43:25.351Z,20.23
2022-11-24T01:46:46.772Z,18.20
2022-11-24T01:49:54.752Z,20.92
2022-11-24T01:52:57.241Z,21.33
2022-11-24T01:55:59.936Z,19.50
2022-11-24T01:59:04.821Z,20.62
2022-11-24T02:02:08.005Z,20.65
2022-11-24T02:05:19.872Z,20.80
2022-11-24T02:08:48.540Z,27.95
2022-11-24T02:11:52.009Z,23.55
2022-11-24T02:14:55.942Z,25.17
2022-11-24T02:17:59.176Z,25.20
2022-11-24T02:21:01.888Z,23.80
2022-11-24T02:24:11.580Z,28.08
2022-11-24T02:27:14.244Z,22.62
2022-11-24T02:30:16.756Z,30.42
2022-11-24T02:33:21.491Z,29.23
2022-11-24T02:36:24.335Z,24.85
2022-11-24T02:39:26.885Z,31.52
2022-11-24T02:42:34.004Z,27.65
2022-11-24T02:45:36.558Z,31.65
2022-11-24T02:48:39.312Z,29.02
2022-11-24T02:51:41.997Z,28.10
2022-11-24T02:54:44.250Z,34.85
2022-11-24T02:57:47.263Z,30.15
2022-11-24T03:00:49.534Z,31.62
2022-11-24T03:03:52.151Z,30.42
2022-11-24T03:06:54.617Z,33.67
2022-11-24T03:09:57.238Z,39.47
2022-11-24T03:12:59.460Z,35.00
2022-11-24T03:16:02.181Z,35.78
2022-11-24T03:19:04.680Z,43.15
2022-11-24T03:22:07.312Z,38.25
2022-11-24T03:25:09.919Z,35.97
2022-11-24T03:28:12.535Z,43.45
2022-11-24T03:31:15.458Z,41.70
2022-11-24T03:34:18.217Z,41.22
2022-11-24T03:37:20.985Z,43.03
2022-11-24T03:40:23.486Z,41.20
2022-11-24T03:43:25.935Z,38.97
2022-11-24T03:46:28.580Z,54.72
2022-11-24T03:49:30.910Z,45.70
2022-11-24T03:52:33.551Z,41.70
2022-11-24T03:55:35.927Z,37.00
2022-11-24T03:58:38.680Z,43.13
2022-11-24T04:01:40.965Z,42.83
2022-11-24T04:04:48.460Z,48.05
2022-11-24T04:07:56.853Z,49.90
2022-11-24T04:10:59.512Z,41.83
2022-11-24T04:14:01.820Z,48.03
2022-11-24T04:17:04.660Z,45.45
2022-11-24T04:20:07.439Z,53.78
2022-11-24T04:23:10.930Z,41.80
2022-11-24T04:26:13.982Z,49.58
2022-11-24T04:29:16.677Z,51.90
2022-11-24T04:32:19.017Z,46.58
2022-11-24T04:35:21.876Z,50.00
2022-11-24T04:39:19.923Z,53.65
2022-11-24T04:41:49.638Z,50.10
2022-11-24T04:44:52.032Z,49.13
2022-11-24T04:47:54.629Z,54.45
2022-11-24T04:50:57.027Z,48.13
2022-11-24T04:53:59.613Z,51.37
2022-11-24T04:57:01.714Z,50.42
2022-11-24T05:00:04.720Z,62.85
2022-11-24T05:03:06.802Z,62.17
2022-11-24T05:06:09.270Z,58.25
2022-11-24T05:09:16.088Z,63.17
2022-11-24T05:12:19.215Z,60.55
2022-11-24T05:15:21.500Z,61.53
2022-11-24T05:18:24.042Z,61.95
2022-11-24T05:21:27.404Z,55.00
2022-11-24T05:24:29.921Z,57.95
2022-11-24T05:27:32.192Z,51.37
2022-11-24T05:30:34.722Z,56.53
2022-11-24T05:33:38.282Z,58.80
2022-11-24T05:37:06.919Z,69.70
2022-11-24T05:40:09.354Z,52.45
2022-11-24T05:43:12.983Z,47.45
2022-11-24T05:46:15.200Z,48.72
2022-11-24T05:49:17.786Z,46.10
2022-11-24T05:52:19.975Z,43.87
2022-11-24T05:55:22.545Z,41.25
2022-11-24T05:58:24.683Z,41.55
2022-11-24T06:01:28.254Z,37.03
2022-11-24T06:04:31.643Z,56.47
2022-11-24T06:07:34.019Z,64.45
2022-11-24T06:10:36.662Z,46.42
2022-11-24T06:13:42.274Z,46.60
2022-11-24T06:16:45.489Z,45.30
2022-11-24T06:19:50.633Z,49.50
2022-11-24T06:22:53.263Z,47.45
2022-11-24T06:25:58.490Z,45.95
2022-11-24T06:29:01.406Z,51.33
2022-11-24T06:32:03.997Z,43.38
2022-11-24T06:35:06.756Z,46.25
2022-11-24T06:38:09.143Z,52.05
2022-11-24T06:41:14.224Z,47.78
2022-11-24T06:44:16.790Z,45.30
2022-11-24T06:47:19.490Z,54.53
2022-11-24T06:50:23.041Z,51.88
2022-11-24T06:53:25.885Z,45.40
2022-11-24T06:56:28.088Z,58.28
2022-11-24T06:59:30.582Z,46.65
2022-11-24T07:02:32.892Z,54.83
2022-11-24T07:05:36.422Z,52.53
2022-11-24T07:08:38.582Z,48.22
2022-11-24T07:11:41.636Z,46.80
2022-11-24T07:14:43.966Z,49.10
2022-11-24T07:17:46.604Z,45.80
2022-11-24T07:20:48.924Z,48.47
2022-11-24T07:23:56.634Z,46.42
2022-11-24T07:26:58.780Z,48.95
2022-11-24T07:30:01.548Z,44.72
2022-11-24T07:33:03.983Z,40.33
2022-11-24T07:36:08.262Z,46.58
2022-11-24T07:39:10.477Z,38.78
2022-11-24T07:42:12.984Z,46.30
2022-11-24T07:45:15.568Z,40.03
2022-11-24T07:48:18.528Z,43.17
2022-11-24T07:51:21.107Z,46.15
2022-11-24T07:54:23.708Z,41.20
2022-11-24T07:57:25.974Z,43.10
2022-11-24T08:00:29.257Z,35.22
2022-11-24T08:03:32.619Z,39.50
2022-11-24T08:06:41.927Z,42.05
2022-11-24T08:09:48.303Z,40.97
2022-11-24T08:12:51.184Z,36.13
2022-11-24T08:15:55.539Z,36.85
2022-11-24T08:18:57.737Z,42.72
2022-11-24T08:22:00.462Z,41.20
2022-11-24T08:25:02.923Z,40.40
2022-11-24T08:28:05.634Z,42.10
2022-11-24T08:31:10.315Z,46.30
2022-11-24T08:34:12.841Z,44.05
2022-11-24T08:37:15.098Z,43.67
2022-11-24T08:40:17.756Z,52.10
2022-11-24T08:43:19.977Z,63.42
2022-11-24T08:46:22.845Z,46.22
2022-11-24T08:49:25.232Z,44.10
2022-11-24T08:52:28.207Z,49.72
2022-11-24T08:55:30.284Z,39.33
2022-11-24T08:58:34.599Z,51.08
2022-11-24T09:01:36.940Z,55.90
2022-11-24T09:04:40.094Z,44.83
2022-11-24T09:07:42.305Z,40.88
2022-11-24T09:10:44.802Z,36.08
2022-11-24T09:13:47.025Z,40.55
2022-11-24T09:16:49.478Z,44.80
2022-11-24T09:19:51.620Z,43.13
2022-11-24T09:22:54.919Z,43.13
2022-11-24T09:26:07.406Z,46.85
2022-11-24T09:29:09.936Z,40.78
2022-11-24T09:32:13.095Z,44.15
2022-11-24T09:35:15.774Z,42.38
2022-11-24T09:38:17.998Z,43.13
2022-11-24T09:41:45.024Z,41.55
2022-11-24T09:45:09.749Z,43.85
2022-11-24T09:48:39.884Z,38.85
2022-11-24T09:51:45.673Z,44.20
2022-11-24T09:54:56.709Z,45.17
2022-11-24T09:58:37.277Z,43.83
2022-11-24T10:01:42.222Z,38.22
2022-11-24T10:04:47.130Z,49.05
2022-11-24T10:08:09.440Z,36.72
2022-11-24T10:11:14.966Z,43.38
2022-11-24T10:14:17.068Z,38.55
2022-11-24T10:17:38.554Z,37.90
2022-11-24T10:20:59.489Z,36.83
2022-11-24T10:24:49.403Z,36.63
2022-11-24T10:28:02.676Z,36.53
2022-11-24T10:31:32.513Z,33.17
2022-11-24T10:34:52.157Z,38.70
2022-11-24T10:38:10.300Z,35.72
2022-11-24T10:41:31.195Z,31.25
2022-11-24T10:44:36.559Z,33.67
2022-11-24T10:47:40.218Z,34.83
2022-11-24T10:50:43.797Z,33.67
2022-11-24T10:53:48.322Z,39.00
2022-11-24T10:56:52.629Z,36.75
2022-11-24T10:59:56.805Z,36.55
2022-11-24T11:03:18.035Z,31.60
2022-11-24T11:06:31.667Z,34.80
2022-11-24T11:09:36.703Z,32.97
2022-11-24T11:12:44.247Z,39.83
2022-11-24T11:15:47.728Z,40.33
2022-11-24T11:18:51.871Z,36.60
2022-11-24T11:22:02.423Z,31.12
2022-11-24T11:25:10.876Z,31.65
2022-11-24T11:28:25.828Z,34.70
2022-11-24T11:31:29.036Z,32.70
2022-11-24T11:34:36.645Z,31.55
2022-11-24T11:37:40.472Z,30.92
2022-11-24T11:40:44.024Z,33.28
2022-11-24T11:43:50.548Z,30.52
2022-11-24T11:46:57.485Z,29.70
2022-11-24T11:50:00.364Z,29.75
2022-11-24T11:53:27.948Z,29.20
2022-11-24T11:56:35.010Z,29.25
2022-11-24T11:59:59.179Z,23.77
2022-11-24T12:03:19.472Z,25.75
2022-11-24T12:06:40.348Z,26.05
2022-11-24T12:10:03.264Z,22.87
2022-11-24T12:13:34.270Z,23.42
2022-11-24T12:16:58.409Z,24.35
2022-11-24T12:20:37.068Z,24.45
2022-11-24T12:24:01.354Z,27.52
2022-11-24T12:27:24.664Z,22.83
2022-11-24T12:30:36.772Z,21.90
2022-11-24T12:34:04.284Z,22.52
2022-11-24T12:37:15.508Z,26.92
2022-11-24T12:40:35.843Z,21.23
2022-11-24T12:43:42.017Z,25.35
2022-11-24T12:46:59.414Z,22.58
2022-11-24T12:50:09.665Z,22.25
2022-11-24T12:53:33.912Z,21.70
2022-11-24T12:56:45.357Z,26.52
2022-11-24T13:00:13.727Z,18.50
2022-11-24T13:03:36.495Z,21.27
2022-11-24T13:06:51.895Z,21.30
2022-11-24T13:10:53.599Z,19.83
2022-11-24T13:14:05.774Z,18.35
2022-11-24T13:17:58.468Z,21.95
2022-11-24T13:21:03.829Z,17.62
2022-11-24T13:24:20.296Z,22.45
2022-11-24T13:27:28.554Z,20.92
2022-11-24T13:30:33.945Z,17.33
2022-11-24T13:33:37.448Z,19.90
2022-11-24T13:36:55.634Z,21.42
2022-11-24T13:40:20.695Z,30.85
2022-11-24T13:43:23.045Z,22.87
2022-11-24T13:47:04.743Z,20.37
2022-11-24T13:50:21.591Z,19.75
2022-11-24T13:53:38.441Z,22.20
2022-11-24T13:56:42.625Z,18.12
2022-11-24T13:59:45.249Z,20.98
2022-11-24T14:02:48.287Z,20.12
2022-11-24T14:05:52.982Z,19.12
2022-11-24T14:08:55.943Z,21.65
2022-11-24T14:12:17.936Z,20.62
2022-11-24T14:15:26.242Z,19.27
2022-11-24T14:18:31.755Z,20.52
2022-11-24T14:21:38.175Z,20.05
2022-11-24T14:24:45.225Z,19.52
2022-11-24T14:27:48.751Z,21.20
2022-11-24T14:30:52.089Z,20.62
2022-11-24T14:34:14.853Z,18.45
2022-11-24T14:37:19.421Z,23.92
2022-11-24T14:40:43.973Z,18.15
2022-11-24T14:43:46.737Z,18.75
2022-11-24T14:46:49.310Z,22.08
2022-11-24T14:49:54.249Z,21.55
2022-11-24T14:52:59.588Z,16.30
2022-11-24T14:56:27.134Z,19.17
2022-11-24T14:59:37.436Z,20.12
2022-11-24T15:03:01.411Z,21.40
2022-11-24T15:06:18.192Z,20.48
2022-11-24T15:09:34.438Z,19.90
2022-11-24T15:12:42.921Z,25.70
2022-11-24T15:16:02.495Z,24.15
2022-11-24T15:19:17.683Z,21.55
2022-11-24T15:22:45.219Z,23.42
2022-11-24T15:25:50.243Z,22.90
2022-11-24T15:28:53.192Z,29.50
2022-11-24T15:31:58.531Z,21.02
2022-11-24T15:35:01.355Z,23.58
2022-11-24T15:38:04.809Z,20.95
2022-11-24T15:41:19.259Z,27.30
2022-11-24T15:44:22.432Z,23.73
2022-11-24T15:47:25.132Z,23.77
2022-11-24T15:50:30.600Z,28.98
2022-11-24T15:53:36.326Z,22.37
2022-11-24T15:56:41.928Z,28.30
2022-11-24T15:59:44.611Z,29.12
2022-11-24T16:02:48.167Z,24.00
2022-11-24T16:05:54.853Z,21.02
2022-11-24T16:08:59.291Z,28.10
2022-11-24T16:12:03.947Z,28.87
2022-11-24T16:15:06.964Z,29.48
2022-11-24T16:18:10.100Z,30.75
2022-11-24T16:21:13.051Z,28.75
2022-11-24T16:24:15.718Z,29.75
2022-11-24T16:27:18.218Z,25.27
2022-11-24T16:30:23.687Z,34.30
2022-11-24T16:33:30.017Z,24.65
2022-11-24T16:36:33.265Z,27.98
2022-11-24T16:39:36.434Z,32.53
2022-11-24T16:42:42.266Z,28.70
2022-11-24T16:45:45.708Z,30.25
2022-11-24T16:48:54.220Z,30.05
2022-11-24T16:51:57.231Z,31.50
2022-11-24T16:55:00.575Z,31.70
2022-11-24T16:58:05.282Z,28.52
2022-11-24T17:01:15.546Z,25.50
2022-11-24T17:04:18.258Z,30.85
2022-11-24T17:07:22.030Z,29.25
2022-11-24T17:10:24.964Z,27.67
2022-11-24T17:13:28.570Z,27.58
2022-11-24T17:16:31.483Z,27.67
2022-11-24T17:19:36.328Z,35.22
2022-11-24T17:22:40.223Z,27.92
2022-11-24T17:25:48.550Z,27.42
2022-11-24T17:28:51.573Z,30.95
2022-11-24T17:31:56.307Z,25.12
2022-11-24T17:35:05.238Z,38.17
2022-11-24T17:38:12.429Z,30.70
2022-11-24T17:41:16.445Z,27.10
2022-11-24T17:44:19.822Z,35.30
2022-11-24T17:47:24.772Z,28.48
2022-11-24T17:50:29.040Z,37.72
2022-11-24T17:53:33.657Z,27.60
2022-11-24T17:56:42.071Z,33.17
2022-11-24T17:59:45.159Z,28.15
2022-11-24T18:02:50.893Z,29.73
2022-11-24T18:05:57.176Z,35.40
2022-11-24T18:09:00.566Z,26.75
2022-11-24T18:12:04.713Z,35.45
2022-11-24T18:15:10.785Z,27.40
2022-11-24T18:18:15.580Z,35.80
2022-11-24T18:21:20.865Z,37.38
2022-11-24T18:24:24.466Z,25.45
2022-11-24T18:27:35.618Z,33.88
2022-11-24T18:30:41.736Z,31.90
2022-11-24T18:33:46.316Z,26.98
2022-11-24T18:36:52.663Z,32.70
2022-11-24T18:39:58.734Z,38.47
2022-11-24T18:43:03.669Z,37.50
2022-11-24T18:46:09.119Z,28.38
2022-11-24T18:49:15.300Z,36.78
2022-11-24T18:52:22.346Z,32.85
2022-11-24T18:55:29.741Z,40.03
2022-11-24T18:58:35.085Z,34.47
2022-11-24T19:01:39.994Z,34.05
2022-11-24T19:04:46.880Z,26.70
2022-11-24T19:07:56.012Z,29.50
2022-11-24T19:11:03.107Z,35.40
2022-11-24T19:14:14.312Z,33.40
2022-11-24T19:17:19.144Z,29.00
2022-11-24T19:20:24.012Z,31.25
2022-11-24T19:23:36.802Z,26.23
2022-11-24T19:26:42.520Z,31.87
2022-11-24T19:29:49.393Z,31.55
2022-11-24T19:32:53.356Z,28.70
2022-11-24T19:36:07.607Z,27.75
2022-11-24T19:39:15.718Z,30.08
2022-11-24T19:42:23.235Z,32.45
2022-11-24T19:45:34.978Z,28.27
2022-11-24T19:48:41.325Z,24.60
2022-11-24T19:51:51.900Z,27.65
2022-11-24T19:54:56.142Z,25.55
2022-11-24T19:58:08.511Z,31.62
2022-11-24T20:01:27.689Z,30.90
2022-11-24T20:04:40.648Z,25.55
2022-11-24T20:11:14.058Z,42.05
2022-11-24T20:14:19.783Z,35.75
2022-11-24T20:17:27.592Z,31.25
2022-11-24T20:20:30.574Z,32.40
2022-11-24T20:23:39.737Z,36.15
2022-11-24T20:26:51.831Z,30.67
2022-11-24T20:33:32.244Z,33.50
2022-11-24T20:36:38.755Z,31.42
2022-11-24T20:39:44.678Z,30.67
2022-11-24T20:42:49.712Z,26.45
2022-11-24T20:45:55.254Z,27.75
2022-11-24T20:49:01.910Z,33.00
2022-11-24T20:52:15.047Z,32.55
2022-11-24T20:55:18.071Z,29.27
2022-11-24T20:58:24.969Z,33.70
2022-11-24T21:01:39.099Z,32.03
2022-11-24T21:04:46.376Z,30.35
2022-11-24T21:07:52.814Z,31.23
2022-11-24T21:11:00.306Z,39.20
2022-11-24T21:14:06.914Z,30.42
2022-11-24T21:17:17.242Z,32.83
2022-11-24T21:20:29.686Z,36.63
2022-11-24T21:23:37.892Z,32.58
2022-11-24T21:26:51.661Z,31.55
2022-11-24T21:29:57.359Z,33.15
2022-11-24T21:33:07.962Z,36.03
2022-11-24T21:36:12.832Z,36.35
2022-11-24T21:39:16.565Z,29.25
2022-11-24T21:42:20.918Z,34.38
2022-11-24T21:45:24.955Z,39.78
2022-11-24T21:48:33.990Z,31.48
2022-11-24T21:51:42.670Z,33.42
2022-11-24T21:54:47.051Z,34.13
2022-11-24T21:57:55.701Z,30.55
2022-11-24T22:01:11.715Z,32.47
2022-11-24T22:04:16.475Z,40.63
2022-11-24T22:07:19.535Z,30.52
2022-11-24T22:10:25.272Z,40.20
2022-11-24T22:13:30.735Z,38.05
2022-11-24T22:16:34.987Z,31.98
2022-11-24T22:19:42.358Z,33.83
2022-11-24T22:25:52.719Z,34.33
2022-11-24T22:29:21.625Z,35.00
2022-11-24T22:32:27.338Z,35.70
2022-11-24T22:35:33.647Z,37.13
2022-11-24T22:38:40.282Z,28.80
2022-11-24T22:41:48.392Z,36.03
2022-11-24T22:44:55.804Z,33.90
2022-11-24T22:48:00.805Z,34.50
2022-11-24T22:51:12.018Z,35.72
2022-11-24T22:54:17.153Z,34.80
2022-11-24T22:57:21.466Z,38.42
2022-11-24T23:00:30.781Z,37.03
2022-11-24T23:03:38.697Z,42.83
2022-11-24T23:06:48.057Z,30.70
2022-11-24T23:09:55.950Z,35.67
2022-11-24T23:13:01.158Z,38.28
2022-11-24T23:16:24.324Z,31.37
2022-11-24T23:19:32.503Z,31.00
2022-11-24T23:22:37.804Z,33.08
2022-11-24T23:26:04.184Z,31.62
2022-11-24T23:29:17.604Z,34.00
2022-11-24T23:35:45.668Z,30.33
2022-11-24T23:38:55.613Z,34.83
2022-11-24T23:42:11.000Z,32.75
2022-11-24T23:45:18.997Z,35.40
2022-11-24T23:48:36.879Z,32.38
2022-11-24T23:51:51.075Z,30.37
2022-11-24T23:54:54.969Z,33.42
2022-11-24T23:58:00.116Z,36.58
